sensor_id;sensor_type;location;lat;lon;timestamp;temperature;humidity
15959;DHT22;8078;47.822;9.402;2023-04-12T00:01:26;4.80;99.90
15959;DHT22;8078;47.822;9.402;2023-04-12T00:03:56;4.80;99.90
15959;DHT22;8078;47.822;9.402;2023-04-12T00:06:21;4.70;99.90
15959;DHT22;8078;47.822;9.402;2023-04-12T00:09:00;4.80;99.90
15959;DHT22;8078;47.822;9.402;2023-04-12T00:11:25;4.70;99.90
15959;DHT22;8078;47.822;9.402;2023-04-12T00:13:53;4.70;99.90
15959;DHT22;8078;47.822;9.402;2023-04-12T00:16:18;4.70;99.90
15959;DHT22;8078;47.822;9.402;2023-04-12T00:18:44;4.70;99.90
15959;DHT22;8078;47.822;9.402;2023-04-12T00:21:10;4.60;99.90
15959;DHT22;8078;47.822;9.402;2023-04-12T00:23:36;4.70;99.90
15959;DHT22;8078;47.822;9.402;2023-04-12T00:26:05;4.70;99.90
15959;DHT22;8078;47.822;9.402;2023-04-12T00:28:31;4.60;99.90
15959;DHT22;8078;47.822;9.402;2023-04-12T00:30:56;4.60;99.90
15959;DHT22;8078;47.822;9.402;2023-04-12T00:33:22;4.60;99.90
15959;DHT22;8078;47.822;9.402;2023-04-12T00:35:47;4.60;99.90
15959;DHT22;8078;47.822;9.402;2023-04-12T00:38:13;4.60;99.90
15959;DHT22;8078;47.822;9.402;2023-04-12T00:40:41;4.60;99.90
15959;DHT22;8078;47.822;9.402;2023-04-12T00:43:07;4.60;99.90
15959;DHT22;8078;47.822;9.402;2023-04-12T00:45:33;4.60;99.90
15959;DHT22;8078;47.822;9.402;2023-04-12T00:48:00;4.50;99.90
15959;DHT22;8078;47.822;9.402;2023-04-12T00:50:25;4.50;99.90
15959;DHT22;8078;47.822;9.402;2023-04-12T00:52:53;4.60;99.90
15959;DHT22;8078;47.822;9.402;2023-04-12T00:55:18;4.40;99.90
15959;DHT22;8078;47.822;9.402;2023-04-12T00:57:44;4.50;99.90
15959;DHT22;8078;47.822;9.402;2023-04-12T01:00:10;4.60;99.90
15959;DHT22;8078;47.822;9.402;2023-04-12T01:02:44;4.60;99.90
15959;DHT22;8078;47.822;9.402;2023-04-12T01:05:21;4.50;99.90
15959;DHT22;8078;47.822;9.402;2023-04-12T01:11:00;4.60;99.90
15959;DHT22;8078;47.822;9.402;2023-04-12T01:13:58;4.60;99.90
15959;DHT22;8078;47.822;9.402;2023-04-12T01:16:33;4.60;99.90
15959;DHT22;8078;47.822;9.402;2023-04-12T01:19:05;4.60;99.90
15959;DHT22;8078;47.822;9.402;2023-04-12T01:21:46;4.50;99.90
15959;DHT22;8078;47.822;9.402;2023-04-12T01:29:40;4.50;99.90
15959;DHT22;8078;47.822;9.402;2023-04-12T01:32:07;4.50;99.90
15959;DHT22;8078;47.822;9.402;2023-04-12T01:34:36;4.50;99.90
15959;DHT22;8078;47.822;9.402;2023-04-12T01:37:02;4.40;99.90
15959;DHT22;8078;47.822;9.402;2023-04-12T01:39:32;4.40;99.90
15959;DHT22;8078;47.822;9.402;2023-04-12T01:41:58;4.40;99.90
15959;DHT22;8078;47.822;9.402;2023-04-12T01:44:24;4.40;99.90
15959;DHT22;8078;47.822;9.402;2023-04-12T01:46:50;4.40;99.90
15959;DHT22;8078;47.822;9.402;2023-04-12T01:49:18;4.40;99.90
15959;DHT22;8078;47.822;9.402;2023-04-12T01:52:07;4.40;99.90
15959;DHT22;8078;47.822;9.402;2023-04-12T01:54:37;4.40;99.90
15959;DHT22;8078;47.822;9.402;2023-04-12T01:57:04;4.30;99.90
15959;DHT22;8078;47.822;9.402;2023-04-12T01:59:40;4.40;99.90
15959;DHT22;8078;47.822;9.402;2023-04-12T02:02:07;4.40;99.90
15959;DHT22;8078;47.822;9.402;2023-04-12T02:04:33;4.40;99.90
15959;DHT22;8078;47.822;9.402;2023-04-12T02:07:00;4.40;99.90
15959;DHT22;8078;47.822;9.402;2023-04-12T02:09:26;4.40;99.90
15959;DHT22;8078;47.822;9.402;2023-04-12T02:11:51;4.40;99.90
15959;DHT22;8078;47.822;9.402;2023-04-12T02:14:17;4.40;99.90
15959;DHT22;8078;47.822;9.402;2023-04-12T02:16:43;4.40;99.90
15959;DHT22;8078;47.822;9.402;2023-04-12T02:19:10;4.40;99.90
15959;DHT22;8078;47.822;9.402;2023-04-12T02:21:43;4.50;99.90
15959;DHT22;8078;47.822;9.402;2023-04-12T02:24:10;4.60;99.90
15959;DHT22;8078;47.822;9.402;2023-04-12T02:26:36;4.60;99.90
15959;DHT22;8078;47.822;9.402;2023-04-12T02:29:08;4.70;99.90
15959;DHT22;8078;47.822;9.402;2023-04-12T02:31:35;4.70;99.90
15959;DHT22;8078;47.822;9.402;2023-04-12T02:34:01;4.70;99.90
15959;DHT22;8078;47.822;9.402;2023-04-12T02:36:27;4.80;99.90
15959;DHT22;8078;47.822;9.402;2023-04-12T02:38:53;4.70;99.90
15959;DHT22;8078;47.822;9.402;2023-04-12T02:41:21;4.80;99.90
15959;DHT22;8078;47.822;9.402;2023-04-12T02:43:46;4.80;99.90
15959;DHT22;8078;47.822;9.402;2023-04-12T02:46:22;4.80;99.90
15959;DHT22;8078;47.822;9.402;2023-04-12T02:48:48;4.80;99.90
15959;DHT22;8078;47.822;9.402;2023-04-12T02:51:13;4.80;99.90
15959;DHT22;8078;47.822;9.402;2023-04-12T02:53:39;4.70;99.90
15959;DHT22;8078;47.822;9.402;2023-04-12T02:56:05;4.70;99.90
15959;DHT22;8078;47.822;9.402;2023-04-12T02:58:32;4.60;99.90
15959;DHT22;8078;47.822;9.402;2023-04-12T03:00:59;4.60;99.90
15959;DHT22;8078;47.822;9.402;2023-04-12T03:03:25;4.70;99.90
15959;DHT22;8078;47.822;9.402;2023-04-12T03:05:52;4.60;99.90
15959;DHT22;8078;47.822;9.402;2023-04-12T03:08:19;4.60;99.90
15959;DHT22;8078;47.822;9.402;2023-04-12T03:10:44;4.60;99.90
15959;DHT22;8078;47.822;9.402;2023-04-12T03:13:10;4.60;99.90
15959;DHT22;8078;47.822;9.402;2023-04-12T03:15:35;4.70;99.90
15959;DHT22;8078;47.822;9.402;2023-04-12T03:18:02;4.70;99.90
15959;DHT22;8078;47.822;9.402;2023-04-12T03:20:27;4.70;99.90
15959;DHT22;8078;47.822;9.402;2023-04-12T03:22:54;4.70;99.90
15959;DHT22;8078;47.822;9.402;2023-04-12T03:25:19;4.70;99.90
15959;DHT22;8078;47.822;9.402;2023-04-12T03:27:45;4.80;99.90
15959;DHT22;8078;47.822;9.402;2023-04-12T03:30:11;4.70;99.90
15959;DHT22;8078;47.822;9.402;2023-04-12T03:32:40;4.70;99.90
15959;DHT22;8078;47.822;9.402;2023-04-12T03:35:10;4.70;99.90
15959;DHT22;8078;47.822;9.402;2023-04-12T03:37:36;4.80;99.90
15959;DHT22;8078;47.822;9.402;2023-04-12T03:40:02;4.80;99.90
15959;DHT22;8078;47.822;9.402;2023-04-12T03:42:27;4.80;99.90
15959;DHT22;8078;47.822;9.402;2023-04-12T03:44:53;4.80;99.90
15959;DHT22;8078;47.822;9.402;2023-04-12T03:47:19;4.80;99.90
15959;DHT22;8078;47.822;9.402;2023-04-12T03:49:48;4.90;99.90
15959;DHT22;8078;47.822;9.402;2023-04-12T03:52:13;4.90;99.90
15959;DHT22;8078;47.822;9.402;2023-04-12T03:54:39;4.90;99.90
15959;DHT22;8078;47.822;9.402;2023-04-12T03:57:05;4.90;99.90
15959;DHT22;8078;47.822;9.402;2023-04-12T03:59:30;4.90;99.90
15959;DHT22;8078;47.822;9.402;2023-04-12T04:01:58;4.90;99.90
15959;DHT22;8078;47.822;9.402;2023-04-12T04:04:24;4.90;99.90
15959;DHT22;8078;47.822;9.402;2023-04-12T04:06:50;5.00;99.90
15959;DHT22;8078;47.822;9.402;2023-04-12T04:09:16;4.90;99.90
15959;DHT22;8078;47.822;9.402;2023-04-12T04:11:42;4.90;99.90
15959;DHT22;8078;47.822;9.402;2023-04-12T04:14:08;5.00;99.90
15959;DHT22;8078;47.822;9.402;2023-04-12T04:16:33;5.00;99.90
15959;DHT22;8078;47.822;9.402;2023-04-12T04:18:59;5.00;99.90
15959;DHT22;8078;47.822;9.402;2023-04-12T04:21:24;5.00;99.90
15959;DHT22;8078;47.822;9.402;2023-04-12T04:23:51;5.00;99.90
15959;DHT22;8078;47.822;9.402;2023-04-12T04:26:17;5.00;99.90
15959;DHT22;8078;47.822;9.402;2023-04-12T04:28:43;5.00;99.90
15959;DHT22;8078;47.822;9.402;2023-04-12T04:31:10;5.00;99.90
15959;DHT22;8078;47.822;9.402;2023-04-12T04:33:37;5.00;99.90
15959;DHT22;8078;47.822;9.402;2023-04-12T04:36:04;5.00;99.90
15959;DHT22;8078;47.822;9.402;2023-04-12T04:38:30;5.00;99.90
15959;DHT22;8078;47.822;9.402;2023-04-12T04:40:58;5.00;99.90
15959;DHT22;8078;47.822;9.402;2023-04-12T04:43:26;5.00;99.90
15959;DHT22;8078;47.822;9.402;2023-04-12T04:45:57;5.00;99.90
15959;DHT22;8078;47.822;9.402;2023-04-12T04:48:23;4.90;99.90
15959;DHT22;8078;47.822;9.402;2023-04-12T04:50:49;5.00;99.90
15959;DHT22;8078;47.822;9.402;2023-04-12T04:53:20;4.90;99.90
15959;DHT22;8078;47.822;9.402;2023-04-12T04:55:46;4.90;99.90
15959;DHT22;8078;47.822;9.402;2023-04-12T04:58:13;5.00;99.90
15959;DHT22;8078;47.822;9.402;2023-04-12T05:00:38;4.90;99.90
15959;DHT22;8078;47.822;9.402;2023-04-12T05:03:04;5.00;99.90
15959;DHT22;8078;47.822;9.402;2023-04-12T05:05:30;5.00;99.90
15959;DHT22;8078;47.822;9.402;2023-04-12T05:07:56;5.00;99.90
15959;DHT22;8078;47.822;9.402;2023-04-12T05:10:22;5.00;99.90
15959;DHT22;8078;47.822;9.402;2023-04-12T05:12:48;5.00;99.90
15959;DHT22;8078;47.822;9.402;2023-04-12T05:15:13;5.00;99.90
15959;DHT22;8078;47.822;9.402;2023-04-12T05:17:39;5.00;99.90
15959;DHT22;8078;47.822;9.402;2023-04-12T05:20:05;5.00;99.90
15959;DHT22;8078;47.822;9.402;2023-04-12T05:22:33;5.00;99.90
15959;DHT22;8078;47.822;9.402;2023-04-12T05:24:59;5.10;99.90
15959;DHT22;8078;47.822;9.402;2023-04-12T05:27:25;5.10;99.90
15959;DHT22;8078;47.822;9.402;2023-04-12T05:29:52;5.10;99.90
15959;DHT22;8078;47.822;9.402;2023-04-12T05:32:18;5.10;99.90
15959;DHT22;8078;47.822;9.402;2023-04-12T05:34:43;5.10;99.90
15959;DHT22;8078;47.822;9.402;2023-04-12T05:37:09;5.10;99.90
15959;DHT22;8078;47.822;9.402;2023-04-12T05:39:35;5.10;99.90
15959;DHT22;8078;47.822;9.402;2023-04-12T05:42:00;5.10;99.90
15959;DHT22;8078;47.822;9.402;2023-04-12T05:44:26;5.10;99.90
15959;DHT22;8078;47.822;9.402;2023-04-12T05:46:52;5.10;99.90
15959;DHT22;8078;47.822;9.402;2023-04-12T05:49:17;5.10;99.90
15959;DHT22;8078;47.822;9.402;2023-04-12T05:51:43;5.20;99.90
15959;DHT22;8078;47.822;9.402;2023-04-12T05:54:08;5.20;99.90
15959;DHT22;8078;47.822;9.402;2023-04-12T05:56:35;5.20;99.90
15959;DHT22;8078;47.822;9.402;2023-04-12T05:59:01;5.20;99.90
15959;DHT22;8078;47.822;9.402;2023-04-12T06:01:27;5.30;99.90
15959;DHT22;8078;47.822;9.402;2023-04-12T06:04:01;5.30;99.90
15959;DHT22;8078;47.822;9.402;2023-04-12T06:06:27;5.30;99.90
15959;DHT22;8078;47.822;9.402;2023-04-12T06:08:54;5.40;99.90
15959;DHT22;8078;47.822;9.402;2023-04-12T06:11:22;5.40;99.90
15959;DHT22;8078;47.822;9.402;2023-04-12T06:13:48;5.40;99.90
15959;DHT22;8078;47.822;9.402;2023-04-12T06:16:14;5.30;99.90
15959;DHT22;8078;47.822;9.402;2023-04-12T06:18:39;5.40;99.90
15959;DHT22;8078;47.822;9.402;2023-04-12T06:21:05;5.40;99.90
15959;DHT22;8078;47.822;9.402;2023-04-12T06:23:31;5.40;99.90
15959;DHT22;8078;47.822;9.402;2023-04-12T06:25:56;5.40;99.90
15959;DHT22;8078;47.822;9.402;2023-04-12T06:28:22;5.40;99.90
15959;DHT22;8078;47.822;9.402;2023-04-12T06:30:47;5.40;99.90
15959;DHT22;8078;47.822;9.402;2023-04-12T06:33:13;5.40;99.90
15959;DHT22;8078;47.822;9.402;2023-04-12T06:35:40;5.40;99.90
15959;DHT22;8078;47.822;9.402;2023-04-12T06:38:06;5.40;99.90
15959;DHT22;8078;47.822;9.402;2023-04-12T06:40:31;5.50;99.90
15959;DHT22;8078;47.822;9.402;2023-04-12T06:42:57;5.50;99.90
15959;DHT22;8078;47.822;9.402;2023-04-12T06:45:22;5.50;99.90
15959;DHT22;8078;47.822;9.402;2023-04-12T06:47:48;5.50;99.90
15959;DHT22;8078;47.822;9.402;2023-04-12T06:50:14;5.50;99.90
15959;DHT22;8078;47.822;9.402;2023-04-12T06:52:39;5.60;99.90
15959;DHT22;8078;47.822;9.402;2023-04-12T06:55:05;5.60;99.90
15959;DHT22;8078;47.822;9.402;2023-04-12T06:57:31;5.70;99.90
15959;DHT22;8078;47.822;9.402;2023-04-12T06:59:57;5.70;99.90
15959;DHT22;8078;47.822;9.402;2023-04-12T07:02:22;5.80;99.90
15959;DHT22;8078;47.822;9.402;2023-04-12T07:04:52;5.80;99.90
15959;DHT22;8078;47.822;9.402;2023-04-12T07:07:18;6.00;99.90
15959;DHT22;8078;47.822;9.402;2023-04-12T07:09:45;6.10;99.90
15959;DHT22;8078;47.822;9.402;2023-04-12T07:12:12;6.20;99.90
15959;DHT22;8078;47.822;9.402;2023-04-12T07:14:38;6.30;99.90
15959;DHT22;8078;47.822;9.402;2023-04-12T07:17:04;6.30;99.90
15959;DHT22;8078;47.822;9.402;2023-04-12T07:19:30;6.40;99.90
15959;DHT22;8078;47.822;9.402;2023-04-12T07:21:56;6.50;99.90
15959;DHT22;8078;47.822;9.402;2023-04-12T07:24:21;6.70;99.90
15959;DHT22;8078;47.822;9.402;2023-04-12T07:26:47;6.70;99.90
15959;DHT22;8078;47.822;9.402;2023-04-12T07:29:12;6.80;99.90
15959;DHT22;8078;47.822;9.402;2023-04-12T07:31:38;6.80;99.90
15959;DHT22;8078;47.822;9.402;2023-04-12T07:34:03;6.70;99.90
15959;DHT22;8078;47.822;9.402;2023-04-12T07:36:29;6.80;99.90
15959;DHT22;8078;47.822;9.402;2023-04-12T07:38:55;6.70;99.90
15959;DHT22;8078;47.822;9.402;2023-04-12T07:41:21;6.70;99.90
15959;DHT22;8078;47.822;9.402;2023-04-12T07:43:47;6.70;99.90
15959;DHT22;8078;47.822;9.402;2023-04-12T07:46:13;6.70;99.90
15959;DHT22;8078;47.822;9.402;2023-04-12T07:48:38;6.90;99.90
15959;DHT22;8078;47.822;9.402;2023-04-12T07:51:04;7.00;99.90
15959;DHT22;8078;47.822;9.402;2023-04-12T07:53:30;7.00;99.90
15959;DHT22;8078;47.822;9.402;2023-04-12T07:55:56;7.10;99.90
15959;DHT22;8078;47.822;9.402;2023-04-12T07:58:22;7.10;99.90
15959;DHT22;8078;47.822;9.402;2023-04-12T08:00:48;7.10;99.90
15959;DHT22;8078;47.822;9.402;2023-04-12T08:03:16;7.20;99.90
15959;DHT22;8078;47.822;9.402;2023-04-12T08:05:42;7.20;99.90
15959;DHT22;8078;47.822;9.402;2023-04-12T08:08:09;7.10;99.90
15959;DHT22;8078;47.822;9.402;2023-04-12T08:10:38;7.10;99.90
15959;DHT22;8078;47.822;9.402;2023-04-12T08:13:05;7.20;99.90
15959;DHT22;8078;47.822;9.402;2023-04-12T08:15:30;7.30;99.90
15959;DHT22;8078;47.822;9.402;2023-04-12T08:17:56;7.50;99.90
15959;DHT22;8078;47.822;9.402;2023-04-12T08:20:22;7.50;99.90
15959;DHT22;8078;47.822;9.402;2023-04-12T08:22:48;7.60;99.90
15959;DHT22;8078;47.822;9.402;2023-04-12T08:25:14;7.70;99.90
15959;DHT22;8078;47.822;9.402;2023-04-12T08:27:44;7.60;99.90
15959;DHT22;8078;47.822;9.402;2023-04-12T08:30:11;7.70;99.90
15959;DHT22;8078;47.822;9.402;2023-04-12T08:32:36;7.90;99.90
15959;DHT22;8078;47.822;9.402;2023-04-12T08:35:06;8.10;99.90
15959;DHT22;8078;47.822;9.402;2023-04-12T08:37:32;8.30;99.90
15959;DHT22;8078;47.822;9.402;2023-04-12T08:40:01;8.40;99.90
15959;DHT22;8078;47.822;9.402;2023-04-12T08:42:26;8.30;99.90
15959;DHT22;8078;47.822;9.402;2023-04-12T08:44:52;8.30;99.90
15959;DHT22;8078;47.822;9.402;2023-04-12T08:47:18;8.40;99.90
15959;DHT22;8078;47.822;9.402;2023-04-12T08:49:45;8.20;99.90
15959;DHT22;8078;47.822;9.402;2023-04-12T08:52:10;8.30;99.90
15959;DHT22;8078;47.822;9.402;2023-04-12T08:54:36;8.60;99.90
15959;DHT22;8078;47.822;9.402;2023-04-12T08:57:04;8.80;99.90
15959;DHT22;8078;47.822;9.402;2023-04-12T08:59:31;8.80;99.90
15959;DHT22;8078;47.822;9.402;2023-04-12T09:02:00;8.90;99.90
15959;DHT22;8078;47.822;9.402;2023-04-12T09:04:26;9.00;99.90
15959;DHT22;8078;47.822;9.402;2023-04-12T09:06:51;9.20;99.90
15959;DHT22;8078;47.822;9.402;2023-04-12T09:09:17;9.10;99.90
15959;DHT22;8078;47.822;9.402;2023-04-12T09:11:42;9.20;99.90
15959;DHT22;8078;47.822;9.402;2023-04-12T09:14:24;9.60;99.90
15959;DHT22;8078;47.822;9.402;2023-04-12T09:16:50;9.50;99.90
15959;DHT22;8078;47.822;9.402;2023-04-12T09:19:33;9.60;99.90
15959;DHT22;8078;47.822;9.402;2023-04-12T09:21:58;9.50;99.90
15959;DHT22;8078;47.822;9.402;2023-04-12T09:24:24;9.50;99.90
15959;DHT22;8078;47.822;9.402;2023-04-12T09:27:06;9.90;99.90
15959;DHT22;8078;47.822;9.402;2023-04-12T09:29:32;9.80;99.90
15959;DHT22;8078;47.822;9.402;2023-04-12T09:32:03;9.90;99.90
15959;DHT22;8078;47.822;9.402;2023-04-12T09:34:30;9.60;99.90
15959;DHT22;8078;47.822;9.402;2023-04-12T09:36:56;9.40;99.90
15959;DHT22;8078;47.822;9.402;2023-04-12T09:39:32;9.80;99.90
15959;DHT22;8078;47.822;9.402;2023-04-12T09:42:05;9.50;99.90
15959;DHT22;8078;47.822;9.402;2023-04-12T09:44:31;9.40;99.90
15959;DHT22;8078;47.822;9.402;2023-04-12T09:46:58;9.40;99.90
15959;DHT22;8078;47.822;9.402;2023-04-12T09:49:43;9.50;99.90
15959;DHT22;8078;47.822;9.402;2023-04-12T09:52:10;9.50;99.90
15959;DHT22;8078;47.822;9.402;2023-04-12T09:54:38;9.50;99.90
15959;DHT22;8078;47.822;9.402;2023-04-12T09:57:06;9.40;99.90
15959;DHT22;8078;47.822;9.402;2023-04-12T09:59:35;9.40;99.90
15959;DHT22;8078;47.822;9.402;2023-04-12T10:02:07;9.40;99.90
15959;DHT22;8078;47.822;9.402;2023-04-12T10:04:36;9.50;99.90
15959;DHT22;8078;47.822;9.402;2023-04-12T10:07:03;9.50;99.90
15959;DHT22;8078;47.822;9.402;2023-04-12T10:09:30;9.50;99.90
15959;DHT22;8078;47.822;9.402;2023-04-12T10:11:56;9.70;99.90
15959;DHT22;8078;47.822;9.402;2023-04-12T10:14:22;9.50;99.90
15959;DHT22;8078;47.822;9.402;2023-04-12T10:16:51;9.40;99.90
15959;DHT22;8078;47.822;9.402;2023-04-12T10:19:20;9.40;99.90
15959;DHT22;8078;47.822;9.402;2023-04-12T10:21:48;9.70;99.90
15959;DHT22;8078;47.822;9.402;2023-04-12T10:24:15;9.60;99.90
15959;DHT22;8078;47.822;9.402;2023-04-12T10:26:42;9.50;99.90
15959;DHT22;8078;47.822;9.402;2023-04-12T10:29:25;9.50;99.90
15959;DHT22;8078;47.822;9.402;2023-04-12T10:31:52;9.70;99.90
15959;DHT22;8078;47.822;9.402;2023-04-12T10:34:31;9.80;99.90
15959;DHT22;8078;47.822;9.402;2023-04-12T10:36:58;9.70;99.90
15959;DHT22;8078;47.822;9.402;2023-04-12T10:39:40;9.80;99.90
15959;DHT22;8078;47.822;9.402;2023-04-12T10:42:25;10.10;99.90
15959;DHT22;8078;47.822;9.402;2023-04-12T10:44:53;10.00;99.90
15959;DHT22;8078;47.822;9.402;2023-04-12T10:50:31;10.00;99.90
15959;DHT22;8078;47.822;9.402;2023-04-12T10:55:41;10.10;99.90
15959;DHT22;8078;47.822;9.402;2023-04-12T10:58:09;10.00;99.90
15959;DHT22;8078;47.822;9.402;2023-04-12T11:03:29;10.10;99.90
15959;DHT22;8078;47.822;9.402;2023-04-12T11:06:03;10.00;99.90
15959;DHT22;8078;47.822;9.402;2023-04-12T11:08:30;10.00;99.90
15959;DHT22;8078;47.822;9.402;2023-04-12T11:11:03;10.00;99.90
15959;DHT22;8078;47.822;9.402;2023-04-12T11:13:34;9.80;99.90
15959;DHT22;8078;47.822;9.402;2023-04-12T11:16:04;9.80;99.90
15959;DHT22;8078;47.822;9.402;2023-04-12T11:18:32;9.90;99.90
15959;DHT22;8078;47.822;9.402;2023-04-12T11:21:01;9.80;99.90
15959;DHT22;8078;47.822;9.402;2023-04-12T11:23:27;9.80;99.90
15959;DHT22;8078;47.822;9.402;2023-04-12T11:25:53;9.70;99.90
15959;DHT22;8078;47.822;9.402;2023-04-12T11:28:19;9.70;99.90
15959;DHT22;8078;47.822;9.402;2023-04-12T11:30:52;9.40;99.90
15959;DHT22;8078;47.822;9.402;2023-04-12T11:33:37;9.40;99.90
15959;DHT22;8078;47.822;9.402;2023-04-12T11:38:32;9.50;99.90
15959;DHT22;8078;47.822;9.402;2023-04-12T11:40:58;9.30;99.90
15959;DHT22;8078;47.822;9.402;2023-04-12T11:43:24;9.10;99.90
15959;DHT22;8078;47.822;9.402;2023-04-12T11:45:56;8.90;99.90
15959;DHT22;8078;47.822;9.402;2023-04-12T11:48:23;8.60;99.90
15959;DHT22;8078;47.822;9.402;2023-04-12T11:50:48;8.60;99.90
15959;DHT22;8078;47.822;9.402;2023-04-12T11:53:14;8.50;99.90
15959;DHT22;8078;47.822;9.402;2023-04-12T11:55:47;8.50;99.90
15959;DHT22;8078;47.822;9.402;2023-04-12T11:58:14;8.50;99.90
15959;DHT22;8078;47.822;9.402;2023-04-12T12:00:41;8.40;99.90
15959;DHT22;8078;47.822;9.402;2023-04-12T12:03:08;8.40;99.90
15959;DHT22;8078;47.822;9.402;2023-04-12T12:05:34;8.30;99.90
15959;DHT22;8078;47.822;9.402;2023-04-12T12:08:01;8.40;99.90
15959;DHT22;8078;47.822;9.402;2023-04-12T12:10:32;8.40;99.90
15959;DHT22;8078;47.822;9.402;2023-04-12T12:12:59;8.40;99.90
15959;DHT22;8078;47.822;9.402;2023-04-12T12:15:28;8.50;99.90
15959;DHT22;8078;47.822;9.402;2023-04-12T12:17:55;8.50;99.90
15959;DHT22;8078;47.822;9.402;2023-04-12T12:20:20;8.60;99.90
15959;DHT22;8078;47.822;9.402;2023-04-12T12:22:46;8.50;99.90
15959;DHT22;8078;47.822;9.402;2023-04-12T12:25:12;8.50;99.90
15959;DHT22;8078;47.822;9.402;2023-04-12T12:27:38;8.60;99.90
15959;DHT22;8078;47.822;9.402;2023-04-12T12:30:08;8.50;99.90
15959;DHT22;8078;47.822;9.402;2023-04-12T12:32:36;8.60;99.90
15959;DHT22;8078;47.822;9.402;2023-04-12T12:35:06;8.60;99.90
15959;DHT22;8078;47.822;9.402;2023-04-12T12:37:33;8.60;99.90
15959;DHT22;8078;47.822;9.402;2023-04-12T12:40:06;8.50;99.90
15959;DHT22;8078;47.822;9.402;2023-04-12T12:42:36;8.60;99.90
15959;DHT22;8078;47.822;9.402;2023-04-12T12:45:02;8.40;99.90
15959;DHT22;8078;47.822;9.402;2023-04-12T12:47:29;8.40;99.90
15959;DHT22;8078;47.822;9.402;2023-04-12T12:49:55;8.40;99.90
15959;DHT22;8078;47.822;9.402;2023-04-12T12:52:21;8.40;99.90
15959;DHT22;8078;47.822;9.402;2023-04-12T12:54:46;8.40;99.90
15959;DHT22;8078;47.822;9.402;2023-04-12T12:57:12;8.30;99.90
15959;DHT22;8078;47.822;9.402;2023-04-12T12:59:38;8.30;99.90
15959;DHT22;8078;47.822;9.402;2023-04-12T13:02:03;8.30;99.90
15959;DHT22;8078;47.822;9.402;2023-04-12T13:04:29;8.30;99.90
15959;DHT22;8078;47.822;9.402;2023-04-12T13:06:55;8.40;99.90
15959;DHT22;8078;47.822;9.402;2023-04-12T13:09:20;8.40;99.90
15959;DHT22;8078;47.822;9.402;2023-04-12T13:11:46;8.30;99.90
15959;DHT22;8078;47.822;9.402;2023-04-12T13:14:12;8.50;99.90
15959;DHT22;8078;47.822;9.402;2023-04-12T13:16:37;8.40;99.90
15959;DHT22;8078;47.822;9.402;2023-04-12T13:19:03;8.40;99.90
15959;DHT22;8078;47.822;9.402;2023-04-12T13:21:28;8.30;99.90
15959;DHT22;8078;47.822;9.402;2023-04-12T13:23:54;8.40;99.90
15959;DHT22;8078;47.822;9.402;2023-04-12T13:26:19;8.30;99.90
15959;DHT22;8078;47.822;9.402;2023-04-12T13:28:45;8.40;99.90
15959;DHT22;8078;47.822;9.402;2023-04-12T13:31:10;8.50;99.90
15959;DHT22;8078;47.822;9.402;2023-04-12T13:33:36;8.50;99.90
15959;DHT22;8078;47.822;9.402;2023-04-12T13:36:02;8.60;99.90
15959;DHT22;8078;47.822;9.402;2023-04-12T13:38:27;8.60;99.90
15959;DHT22;8078;47.822;9.402;2023-04-12T13:40:53;8.70;99.90
15959;DHT22;8078;47.822;9.402;2023-04-12T13:43:20;8.80;99.90
15959;DHT22;8078;47.822;9.402;2023-04-12T13:45:45;8.90;99.90
15959;DHT22;8078;47.822;9.402;2023-04-12T13:48:11;9.00;99.90
15959;DHT22;8078;47.822;9.402;2023-04-12T13:50:36;8.90;99.90
15959;DHT22;8078;47.822;9.402;2023-04-12T13:53:02;9.10;99.90
15959;DHT22;8078;47.822;9.402;2023-04-12T13:55:27;9.10;99.90
15959;DHT22;8078;47.822;9.402;2023-04-12T13:57:53;9.20;99.90
15959;DHT22;8078;47.822;9.402;2023-04-12T14:00:19;9.20;99.90
15959;DHT22;8078;47.822;9.402;2023-04-12T14:02:45;9.10;99.90
15959;DHT22;8078;47.822;9.402;2023-04-12T14:05:10;9.20;99.90
15959;DHT22;8078;47.822;9.402;2023-04-12T14:07:36;9.20;99.90
15959;DHT22;8078;47.822;9.402;2023-04-12T14:10:02;9.30;99.90
15959;DHT22;8078;47.822;9.402;2023-04-12T14:12:27;9.40;99.90
15959;DHT22;8078;47.822;9.402;2023-04-12T14:14:53;9.50;99.90
15959;DHT22;8078;47.822;9.402;2023-04-12T14:17:18;9.50;99.90
15959;DHT22;8078;47.822;9.402;2023-04-12T14:19:44;9.40;99.90
15959;DHT22;8078;47.822;9.402;2023-04-12T14:22:10;9.40;99.90
15959;DHT22;8078;47.822;9.402;2023-04-12T14:24:35;9.40;99.90
15959;DHT22;8078;47.822;9.402;2023-04-12T14:27:01;9.30;99.90
15959;DHT22;8078;47.822;9.402;2023-04-12T14:29:26;9.30;99.90
15959;DHT22;8078;47.822;9.402;2023-04-12T14:31:52;9.30;99.90
15959;DHT22;8078;47.822;9.402;2023-04-12T14:34:17;9.50;99.90
15959;DHT22;8078;47.822;9.402;2023-04-12T14:36:43;9.50;99.90
15959;DHT22;8078;47.822;9.402;2023-04-12T14:39:09;9.50;99.90
15959;DHT22;8078;47.822;9.402;2023-04-12T14:41:35;9.60;99.90
15959;DHT22;8078;47.822;9.402;2023-04-12T14:44:01;9.60;99.90
15959;DHT22;8078;47.822;9.402;2023-04-12T14:46:27;9.50;99.90
15959;DHT22;8078;47.822;9.402;2023-04-12T14:48:53;9.50;99.90
15959;DHT22;8078;47.822;9.402;2023-04-12T14:51:19;9.50;99.90
15959;DHT22;8078;47.822;9.402;2023-04-12T14:53:45;9.50;99.90
15959;DHT22;8078;47.822;9.402;2023-04-12T14:56:21;9.60;99.90
15959;DHT22;8078;47.822;9.402;2023-04-12T14:58:47;9.50;99.90
15959;DHT22;8078;47.822;9.402;2023-04-12T15:01:12;9.40;99.90
15959;DHT22;8078;47.822;9.402;2023-04-12T15:03:38;9.30;99.90
15959;DHT22;8078;47.822;9.402;2023-04-12T15:06:07;9.30;99.90
15959;DHT22;8078;47.822;9.402;2023-04-12T15:08:33;9.40;99.90
15959;DHT22;8078;47.822;9.402;2023-04-12T15:11:09;9.30;99.90
15959;DHT22;8078;47.822;9.402;2023-04-12T15:13:36;9.20;99.90
15959;DHT22;8078;47.822;9.402;2023-04-12T15:16:04;9.20;99.90
15959;DHT22;8078;47.822;9.402;2023-04-12T15:18:30;9.10;99.90
15959;DHT22;8078;47.822;9.402;2023-04-12T15:20:55;9.00;99.90
15959;DHT22;8078;47.822;9.402;2023-04-12T15:23:24;9.00;99.90
15959;DHT22;8078;47.822;9.402;2023-04-12T15:25:58;8.90;99.90
15959;DHT22;8078;47.822;9.402;2023-04-12T15:28:26;8.80;99.90
15959;DHT22;8078;47.822;9.402;2023-04-12T15:30:53;8.80;99.90
15959;DHT22;8078;47.822;9.402;2023-04-12T15:33:19;8.70;99.90
15959;DHT22;8078;47.822;9.402;2023-04-12T15:35:46;8.70;99.90
15959;DHT22;8078;47.822;9.402;2023-04-12T15:38:12;8.60;99.90
15959;DHT22;8078;47.822;9.402;2023-04-12T15:40:37;8.60;99.90
15959;DHT22;8078;47.822;9.402;2023-04-12T15:43:03;8.40;99.90
15959;DHT22;8078;47.822;9.402;2023-04-12T15:45:29;8.30;99.90
15959;DHT22;8078;47.822;9.402;2023-04-12T15:47:54;8.20;99.90
15959;DHT22;8078;47.822;9.402;2023-04-12T15:50:20;8.20;99.90
15959;DHT22;8078;47.822;9.402;2023-04-12T15:52:46;8.10;99.90
15959;DHT22;8078;47.822;9.402;2023-04-12T15:55:14;8.00;99.90
15959;DHT22;8078;47.822;9.402;2023-04-12T15:57:44;7.90;99.90
15959;DHT22;8078;47.822;9.402;2023-04-12T16:00:10;7.90;99.90
15959;DHT22;8078;47.822;9.402;2023-04-12T16:02:50;7.80;99.90
15959;DHT22;8078;47.822;9.402;2023-04-12T16:05:19;7.80;99.90
15959;DHT22;8078;47.822;9.402;2023-04-12T16:07:45;7.80;99.90
15959;DHT22;8078;47.822;9.402;2023-04-12T16:10:17;7.70;99.90
15959;DHT22;8078;47.822;9.402;2023-04-12T16:12:47;7.70;99.90
15959;DHT22;8078;47.822;9.402;2023-04-12T16:15:14;7.70;99.90
15959;DHT22;8078;47.822;9.402;2023-04-12T16:17:41;7.60;99.90
15959;DHT22;8078;47.822;9.402;2023-04-12T16:20:08;7.60;99.90
15959;DHT22;8078;47.822;9.402;2023-04-12T16:22:36;7.60;99.90